Time;durP1;ratioP1;P1;durP2;ratioP2;P2;SDS_P1;SDS_P2;PMS_P1;PMS_P2;Temp;Humidity;BMP_temperature;BMP_pressure;BME280_temperature;BME280_humidity;BME280_pressure;Samples;Min_cycle;Max_cycle;Signal;HPM_P1;HPM_P2
2021/01/14 00:00:51;;;;;;;13.17;1.50;;;;;;;2.60;87.08;101867.28;5037937;28;20045;-80
2021/01/14 00:03:16;;;;;;;27.92;5.25;;;;;;;2.57;87.11;101865.41;5037833;28;20280;-79
2021/01/14 00:05:42;;;;;;;15.02;2.78;;;;;;;2.66;87.21;101862.66;5037288;28;20387;-80
2021/01/14 00:08:07;;;;;;;17.55;2.15;;;;;;;2.61;86.89;101859.81;5034526;28;20037;-79
2021/01/14 00:10:33;;;;;;;12.85;1.88;;;;;;;2.59;87.53;101860.44;5033976;28;20025;-79
2021/01/14 00:12:58;;;;;;;46.78;12.13;;;;;;;2.58;87.50;101862.09;5035379;28;20052;-80
2021/01/14 00:15:24;;;;;;;157.83;41.57;;;;;;;2.57;87.28;101872.13;5032774;28;20394;-80
2021/01/14 00:17:49;;;;;;;80.68;20.67;;;;;;;2.61;87.55;101864.88;5034401;28;20479;-79
2021/01/14 00:20:19;;;;;;;87.72;19.90;;;;;;;2.56;87.37;101871.25;5030797;28;20026;-78
2021/01/14 00:22:46;;;;;;;120.47;31.33;;;;;;;2.57;87.80;101873.00;5033070;28;20033;-78
2021/01/14 00:25:13;;;;;;;62.67;16.10;;;;;;;2.57;87.94;101862.88;5031826;28;20033;-79
2021/01/14 00:27:38;;;;;;;13.17;2.53;;;;;;;2.53;87.48;101876.09;5035006;28;20052;-79
2021/01/14 00:30:14;;;;;;;14.65;2.10;;;;;;;2.52;87.44;101870.91;5033391;28;20491;-79
2021/01/14 00:32:40;;;;;;;17.40;2.70;;;;;;;2.56;87.68;101860.22;5033227;28;20045;-80
2021/01/14 00:35:07;;;;;;;27.63;5.32;;;;;;;2.65;88.17;101851.63;5034023;28;20696;-79
2021/01/14 00:37:50;;;;;;;18.17;4.23;;;;;;;2.66;89.19;101853.41;5034378;28;20507;-79
2021/01/14 00:40:21;;;;;;;34.33;8.10;;;;;;;2.68;89.76;101849.31;5032379;28;20018;-79
2021/01/14 00:42:57;;;;;;;24.23;5.20;;;;;;;2.67;90.02;101849.22;5030545;28;20391;-79
2021/01/14 00:45:22;;;;;;;22.37;6.30;;;;;;;2.64;90.49;101851.53;5027112;28;20029;-79
2021/01/14 00:47:48;;;;;;;28.08;6.53;;;;;;;2.65;90.58;101846.56;5032281;28;20278;-79
2021/01/14 00:50:13;;;;;;;23.13;5.85;;;;;;;2.66;90.69;101847.44;5033177;28;20215;-79
2021/01/14 00:52:40;;;;;;;20.27;5.07;;;;;;;2.75;90.29;101848.09;5033202;28;20030;-79
2021/01/14 00:55:06;;;;;;;24.33;4.53;;;;;;;2.68;90.46;101856.03;5032936;28;20041;-80
2021/01/14 00:57:34;;;;;;;20.02;3.85;;;;;;;2.69;90.65;101860.34;5033071;28;20025;-78
2021/01/14 00:59:59;;;;;;;19.50;4.03;;;;;;;2.73;90.58;101864.84;5032558;28;20511;-80
2021/01/14 01:02:24;;;;;;;12.40;3.07;;;;;;;2.67;90.89;101872.03;5031275;28;20025;-81
2021/01/14 01:04:50;;;;;;;19.90;3.80;;;;;;;2.70;91.30;101879.88;5032430;28;20460;-79
2021/01/14 01:07:15;;;;;;;17.87;3.07;;;;;;;2.72;91.08;101880.84;5031344;28;20276;-78
2021/01/14 01:09:40;;;;;;;13.27;2.70;;;;;;;2.69;91.21;101873.03;5032574;28;20029;-79
2021/01/14 01:12:06;;;;;;;9.20;2.75;;;;;;;2.62;91.28;101880.97;5032334;28;20419;-78
2021/01/14 01:14:31;;;;;;;10.02;3.25;;;;;;;2.62;91.29;101886.06;5032424;28;20037;-78
2021/01/14 01:16:57;;;;;;;10.73;2.33;;;;;;;2.61;91.24;101890.25;5031201;28;20028;-77
2021/01/14 01:19:22;;;;;;;14.73;2.72;;;;;;;2.56;91.18;101890.66;5031235;28;20493;-79
2021/01/14 01:21:48;;;;;;;15.43;3.05;;;;;;;2.57;91.32;101892.41;5032340;28;20105;-78
2021/01/14 01:24:13;;;;;;;13.32;2.72;;;;;;;2.50;91.46;101889.44;5032887;28;20043;-79
2021/01/14 01:26:39;;;;;;;13.87;2.20;;;;;;;2.50;92.00;101886.91;5032234;28;20033;-79
2021/01/14 01:29:04;;;;;;;14.98;3.70;;;;;;;2.56;91.99;101890.66;5031062;28;20545;-77
2021/01/14 01:31:30;;;;;;;11.18;3.00;;;;;;;2.62;91.58;101896.19;5030767;28;20033;-77
2021/01/14 01:33:55;;;;;;;14.25;2.25;;;;;;;2.67;91.34;101894.88;5033192;28;20032;-77
2021/01/14 01:36:21;;;;;;;15.55;2.45;;;;;;;2.65;91.25;101896.41;5031180;28;20037;-78
2021/01/14 01:38:46;;;;;;;10.23;1.90;;;;;;;2.66;91.03;101904.13;5030761;28;20528;-79
2021/01/14 01:41:11;;;;;;;11.03;2.20;;;;;;;2.60;91.36;101908.78;5031155;28;20279;-79
2021/01/14 01:43:37;;;;;;;7.93;1.77;;;;;;;2.57;91.33;101917.78;5030744;28;20479;-78
2021/01/14 01:46:03;;;;;;;9.10;2.43;;;;;;;2.49;91.42;101914.69;5032344;28;20307;-78
2021/01/14 01:48:29;;;;;;;11.83;1.97;;;;;;;2.46;91.66;101915.34;5031679;28;20048;-79
2021/01/14 01:50:58;;;;;;;13.97;2.63;;;;;;;2.48;91.82;101918.88;5031427;28;20067;-78
2021/01/14 01:53:23;;;;;;;5.77;1.80;;;;;;;2.48;91.77;101918.88;5033399;28;20017;-79
2021/01/14 01:55:49;;;;;;;13.95;2.08;;;;;;;2.48;91.75;101918.00;5035157;28;20024;-78
2021/01/14 01:58:19;;;;;;;9.50;2.03;;;;;;;2.48;91.94;101923.97;5036538;28;20025;-78
2021/01/14 02:00:45;;;;;;;10.90;2.43;;;;;;;2.51;91.51;101928.38;5034083;28;20025;-78
2021/01/14 02:03:10;;;;;;;8.53;1.47;;;;;;;2.48;91.57;101931.56;5037216;28;20032;-79
2021/01/14 02:05:35;;;;;;;9.97;1.77;;;;;;;2.45;91.47;101933.00;5035835;28;20036;-78
2021/01/14 02:08:15;;;;;;;10.43;2.17;;;;;;;2.43;91.66;101943.03;5035052;28;20284;-79
2021/01/14 02:10:53;;;;;;;7.23;1.40;;;;;;;2.48;91.44;101939.16;5035215;28;20784;-78
2021/01/14 02:13:35;;;;;;;7.07;2.27;;;;;;;2.48;91.34;101949.31;5034933;28;20080;-79
2021/01/14 02:16:02;;;;;;;12.87;1.90;;;;;;;2.37;91.58;101942.59;5034890;28;20025;-79
2021/01/14 02:18:29;;;;;;;15.67;1.40;;;;;;;2.30;90.70;101936.94;5034286;28;20525;-77
2021/01/14 02:20:59;;;;;;;11.20;1.83;;;;;;;2.35;90.72;101949.19;5034350;28;20061;-79
2021/01/14 02:23:46;;;;;;;9.07;1.80;;;;;;;2.42;90.92;101953.06;5035844;28;20033;-77
2021/01/14 02:26:23;;;;;;;10.65;1.80;;;;;;;2.39;91.42;101950.31;5034698;28;20513;-78
2021/01/14 02:28:51;;;;;;;9.43;1.53;;;;;;;2.40;91.17;101955.47;5034213;28;20085;-78
2021/01/14 02:31:16;;;;;;;6.93;1.67;;;;;;;2.36;91.27;101957.69;5035514;28;20028;-78
2021/01/14 02:33:42;;;;;;;9.60;1.52;;;;;;;2.30;91.33;101955.59;5035847;28;20037;-79
2021/01/14 02:36:08;;;;;;;11.98;2.20;;;;;;;2.26;91.46;101951.03;5034403;28;20088;-78
2021/01/14 02:38:35;;;;;;;10.57;2.00;;;;;;;2.28;91.26;101962.19;5035169;28;20022;-78
2021/01/14 02:41:00;;;;;;;12.60;1.50;;;;;;;2.33;91.36;101958.34;5033352;28;20053;-79
2021/01/14 02:43:26;;;;;;;9.82;1.80;;;;;;;2.29;90.95;101961.41;5033269;28;20056;-76
2021/01/14 02:45:52;;;;;;;7.90;1.48;;;;;;;2.30;90.88;101960.66;5035511;28;20029;-79
2021/01/14 02:48:22;;;;;;;9.27;1.20;;;;;;;2.33;90.96;101963.41;5032639;28;20434;-78
2021/01/14 02:50:52;;;;;;;10.47;1.23;;;;;;;2.28;90.77;101962.19;5032104;28;20572;-77
2021/01/14 02:53:20;;;;;;;9.00;0.97;;;;;;;2.25;91.03;101961.94;5035190;28;20033;-78
2021/01/14 02:55:46;;;;;;;4.23;1.20;;;;;;;2.23;91.13;101960.94;5034959;28;20052;-78
2021/01/14 02:58:12;;;;;;;12.90;2.08;;;;;;;2.19;91.21;101954.75;5033554;28;20021;-78
2021/01/14 03:00:37;;;;;;;7.03;1.05;;;;;;;2.18;90.12;101952.09;5035153;28;20059;-79
2021/01/14 03:03:03;;;;;;;6.67;1.83;;;;;;;2.23;89.97;101950.81;5033126;28;20040;-77
2021/01/14 03:05:28;;;;;;;6.60;1.17;;;;;;;2.25;89.84;101956.88;5033910;28;20025;-78
2021/01/14 03:07:53;;;;;;;12.10;1.77;;;;;;;2.28;90.32;101959.66;5033369;28;20505;-77
2021/01/14 03:10:18;;;;;;;6.43;1.00;;;;;;;2.24;90.51;101962.72;5033562;28;20032;-79
2021/01/14 03:12:44;;;;;;;10.83;1.43;;;;;;;2.15;84.21;101951.88;5036362;28;20338;-79
2021/01/14 03:15:09;;;;;;;5.28;1.05;;;;;;;2.28;81.66;101961.31;5035435;28;20025;-79
2021/01/14 03:17:36;;;;;;;6.95;1.40;;;;;;;2.32;86.72;101961.66;5036411;28;20132;-79
2021/01/14 03:20:03;;;;;;;6.97;1.60;;;;;;;2.27;88.60;101962.03;5035234;28;20022;-80
2021/01/14 03:22:29;;;;;;;10.83;1.63;;;;;;;2.11;84.52;101952.44;5035054;28;20025;-78
2021/01/14 03:24:54;;;;;;;10.02;1.45;;;;;;;2.19;82.13;101951.34;5035896;28;20092;-77
2021/01/14 03:27:19;;;;;;;12.68;1.85;;;;;;;2.27;82.38;101955.31;5034542;28;20390;-79
2021/01/14 03:29:45;;;;;;;8.47;2.03;;;;;;;2.29;84.05;101958.88;5036057;28;20037;-78
2021/01/14 03:32:10;;;;;;;6.83;1.53;;;;;;;2.29;83.66;101963.97;5036516;28;20101;-78
2021/01/14 03:34:35;;;;;;;9.70;1.40;;;;;;;2.20;86.73;101950.56;5037319;28;20337;-79
2021/01/14 03:37:01;;;;;;;11.67;1.50;;;;;;;2.16;82.21;101953.66;5034358;28;20733;-79
2021/01/14 03:39:28;;;;;;;8.73;1.02;;;;;;;2.16;84.27;101953.66;5035245;28;20029;-79
2021/01/14 03:41:54;;;;;;;9.13;1.53;;;;;;;2.08;86.72;101954.72;5035957;28;20057;-77
2021/01/14 03:44:20;;;;;;;;;;;;;;;2.11;87.96;101945.72;5035017;28;20036;-79
2021/01/14 03:46:46;;;;;;;8.03;1.10;;;;;;;2.10;88.67;101954.06;5034280;28;19935;-79
2021/01/14 03:49:12;;;;;;;9.73;1.57;;;;;;;1.98;88.80;101952.28;5032840;28;20031;-79
2021/01/14 03:51:38;;;;;;;4.32;1.00;;;;;;;1.98;87.81;101957.34;5033523;28;20021;-78
2021/01/14 03:54:03;;;;;;;4.35;1.10;;;;;;;1.96;88.82;101949.63;5034321;28;20021;-77
2021/01/14 03:56:29;;;;;;;6.30;1.40;;;;;;;1.85;88.08;101948.81;5035985;28;20072;-78
2021/01/14 03:58:54;;;;;;;11.53;1.70;;;;;;;1.95;83.81;101941.88;5033503;28;20033;-78
2021/01/14 04:01:20;;;;;;;6.43;2.47;;;;;;;2.04;85.40;101940.94;5032956;28;20292;-76
2021/01/14 04:03:46;;;;;;;;;;;;;;;2.02;87.68;101954.28;5034206;28;20112;-79
2021/01/14 04:06:11;;;;;;;4.70;0.90;;;;;;;1.98;88.72;101952.28;5034959;28;20518;-77
2021/01/14 04:08:37;;;;;;;8.32;0.90;;;;;;;1.91;89.25;101955.97;5032975;28;20033;-80
2021/01/14 04:11:03;;;;;;;5.57;1.02;;;;;;;1.86;89.49;101955.63;5034992;28;20391;-79
2021/01/14 04:13:30;;;;;;;5.65;0.85;;;;;;;1.77;89.63;101957.47;5032913;28;20061;-79
2021/01/14 04:15:56;;;;;;;11.80;1.50;;;;;;;1.72;89.99;101961.31;5032205;28;20067;-79
2021/01/14 04:18:21;;;;;;;5.78;0.95;;;;;;;1.69;89.92;101963.59;5031908;28;20045;-79
2021/01/14 04:20:46;;;;;;;11.47;1.50;;;;;;;1.69;89.49;101963.59;5033062;28;20033;-80
2021/01/14 04:23:12;;;;;;;9.63;1.48;;;;;;;1.70;89.35;101957.78;5033291;28;20018;-78
2021/01/14 04:25:37;;;;;;;5.68;1.17;;;;;;;1.70;88.84;101956.88;5032282;28;20037;-78
2021/01/14 04:28:04;;;;;;;7.38;1.40;;;;;;;1.73;89.24;101962.19;5030614;28;20025;-77
2021/01/14 04:30:34;;;;;;;9.83;1.27;;;;;;;1.77;89.45;101960.00;5033303;28;20485;-78
2021/01/14 04:33:10;;;;;;;7.47;0.90;;;;;;;1.80;89.98;101961.88;5031683;28;20068;-78
2021/01/14 04:35:41;;;;;;;;;;;;;;;1.72;89.91;101958.78;5031578;28;20377;-78
2021/01/14 04:38:06;;;;;;;5.63;0.97;;;;;;;1.69;90.17;101953.47;5031402;28;20306;-77
2021/01/14 04:40:32;;;;;;;5.83;1.00;;;;;;;1.73;90.43;101959.66;5032278;28;20027;-78
2021/01/14 04:42:57;;;;;;;9.45;1.35;;;;;;;1.72;90.48;101958.78;5031442;28;20091;-79
2021/01/14 04:45:23;;;;;;;8.77;1.08;;;;;;;1.67;90.69;101960.06;5032447;28;20467;-79
2021/01/14 04:47:50;;;;;;;7.22;1.13;;;;;;;1.64;90.80;101958.97;5030608;28;20446;-78
2021/01/14 04:50:17;;;;;;;7.67;1.50;;;;;;;1.65;90.91;101971.75;5030684;28;20013;-78
2021/01/14 04:52:43;;;;;;;5.67;1.00;;;;;;;1.63;90.79;101972.38;5032105;28;20426;-79
2021/01/14 04:55:15;;;;;;;5.82;1.20;;;;;;;1.63;90.88;101972.38;5032090;28;20361;-79
2021/01/14 04:57:43;;;;;;;5.60;1.20;;;;;;;1.67;90.82;101979.47;5028909;28;20033;-79
2021/01/14 05:00:11;;;;;;;3.17;0.93;;;;;;;1.60;90.68;101978.06;5030914;28;20102;-79
2021/01/14 05:02:53;;;;;;;4.40;1.30;;;;;;;1.60;90.67;101973.00;5031025;28;20076;-78
2021/01/14 05:05:21;;;;;;;10.67;1.17;;;;;;;1.55;90.78;101979.38;5033391;28;20528;-80
2021/01/14 05:08:01;;;;;;;5.43;0.97;;;;;;;1.60;90.86;101973.00;5034937;28;20036;-78
2021/01/14 05:10:27;;;;;;;5.30;1.10;;;;;;;1.56;90.88;101991.25;5030123;28;20021;-78
2021/01/14 05:12:55;;;;;;;4.57;1.08;;;;;;;1.55;91.20;101989.50;5033128;28;20025;-78
2021/01/14 05:15:24;;;;;;;7.17;0.80;;;;;;;1.51;91.13;101987.50;5035470;28;20021;-78
2021/01/14 05:17:50;;;;;;;6.20;1.33;;;;;;;1.40;91.00;101991.72;5034592;28;20045;-78
2021/01/14 05:20:15;;;;;;;4.63;1.20;;;;;;;1.33;91.14;101996.19;5034252;28;20025;-77
2021/01/14 05:22:41;;;;;;;8.23;1.27;;;;;;;1.27;91.47;101991.50;5033921;28;20653;-78
2021/01/14 05:25:11;;;;;;;6.80;1.43;;;;;;;1.25;91.82;101990.50;5034987;28;20040;-80
2021/01/14 05:27:37;;;;;;;4.73;1.30;;;;;;;1.25;91.86;101993.03;5032107;28;20021;-79
2021/01/14 05:30:03;;;;;;;;;;;;;;;1.28;91.40;102002.50;5034298;28;20026;-78
2021/01/14 05:32:43;;;;;;;4.90;1.13;;;;;;;1.32;91.12;102005.44;5033688;28;19913;-77
2021/01/14 05:35:10;;;;;;;9.77;1.10;;;;;;;1.33;91.25;102002.13;5033269;28;20024;-80
2021/01/14 05:37:42;;;;;;;4.87;0.70;;;;;;;1.34;91.10;102006.44;5033383;28;20032;-78
2021/01/14 05:40:22;;;;;;;8.63;1.10;;;;;;;1.24;91.12;102007.34;5031871;28;20380;-78
2021/01/14 05:43:06;;;;;;;6.37;1.30;;;;;;;1.17;91.35;101999.13;5030062;28;20462;-78
2021/01/14 05:45:34;;;;;;;9.10;1.20;;;;;;;1.15;91.63;101993.97;5031298;28;20100;-78
2021/01/14 05:48:06;;;;;;;3.83;1.17;;;;;;;1.09;91.37;101996.00;5031138;28;20032;-79
2021/01/14 05:50:35;;;;;;;9.87;1.20;;;;;;;1.09;91.23;101998.53;5039274;23;20042;-78
2021/01/14 05:53:12;;;;;;;5.03;0.90;;;;;;;1.10;91.60;102000.31;5016889;28;20091;-77
2021/01/14 05:55:42;;;;;;;10.37;1.50;;;;;;;1.17;91.24;101999.13;5020527;28;20026;-79
2021/01/14 05:58:11;;;;;;;9.53;1.20;;;;;;;1.22;91.24;101997.84;5018261;28;20095;-77
2021/01/14 06:00:42;;;;;;;7.93;1.17;;;;;;;1.27;90.97;101996.56;5027898;28;20045;-78
2021/01/14 06:03:21;;;;;;;7.40;1.23;;;;;;;1.28;91.33;101993.28;5026731;28;20053;-79
2021/01/14 06:05:46;;;;;;;6.47;1.03;;;;;;;1.25;91.44;101988.84;5030742;28;20029;-80
2021/01/14 06:08:20;;;;;;;6.13;1.00;;;;;;;1.25;91.26;101985.44;5030302;28;20030;-77
2021/01/14 06:10:46;;;;;;;5.87;0.90;;;;;;;1.21;91.40;101986.84;5030545;28;20045;-78
2021/01/14 06:13:11;;;;;;;7.43;1.13;;;;;;;1.17;91.02;101989.91;5029476;28;20451;-77
2021/01/14 06:15:36;;;;;;;4.07;0.80;;;;;;;1.19;91.24;101983.31;5030683;28;20018;-78
2021/01/14 06:18:08;;;;;;;2.87;0.90;;;;;;;1.25;91.43;101983.78;5030743;28;20040;-78
2021/01/14 06:20:36;;;;;;;3.07;1.53;;;;;;;1.16;91.34;101983.06;5030675;28;20379;-78
2021/01/14 06:23:01;;;;;;;6.97;1.30;;;;;;;1.18;91.53;101993.31;5025989;28;20105;-78
2021/01/14 06:25:27;;;;;;;5.13;1.00;;;;;;;1.11;91.33;101997.00;5030625;28;20060;-79
2021/01/14 06:27:59;;;;;;;7.55;1.23;;;;;;;1.09;91.37;101988.41;5027836;28;20033;-77
2021/01/14 06:30:24;;;;;;;7.50;1.57;;;;;;;1.10;87.87;101989.31;5031558;28;20026;-83
2021/01/14 06:33:01;;;;;;;14.32;2.97;;;;;;;1.25;86.65;102000.63;5030990;28;20036;-76
2021/01/14 06:35:27;;;;;;;;;;;;;;;1.40;85.96;101994.25;5029727;28;20450;-79
2021/01/14 06:37:54;;;;;;;29.53;9.00;;;;;;;1.39;86.19;102001.72;5028513;28;19917;-79
2021/01/14 06:40:27;;;;;;;22.50;6.17;;;;;;;1.42;86.11;102002.84;5031759;28;20044;-77
2021/01/14 06:42:57;;;;;;;7.37;2.47;;;;;;;1.46;84.34;101993.84;5032267;28;20055;-80
2021/01/14 06:45:26;;;;;;;8.80;1.87;;;;;;;1.41;86.91;102002.75;5033880;28;20025;-79
2021/01/14 06:48:03;;;;;;;10.77;1.73;;;;;;;1.36;86.12;102011.63;5033164;28;20029;-76
2021/01/14 06:50:30;;;;;;;10.82;1.90;;;;;;;1.30;87.33;102006.03;5035210;28;20022;-80
2021/01/14 06:53:10;;;;;;;13.97;1.30;;;;;;;1.23;86.66;102015.69;5035604;28;20025;-81
2021/01/14 06:55:36;;;;;;;15.77;2.37;;;;;;;1.26;86.56;102010.00;5033221;28;20502;-80
2021/01/14 06:58:12;;;;;;;3.60;1.40;;;;;;;1.29;87.69;102010.22;5033358;28;20406;-80
2021/01/14 07:00:40;;;;;;;3.35;0.95;;;;;;;1.33;87.75;102024.91;5033115;28;20037;-80
2021/01/14 07:03:24;;;;;;;6.27;1.53;;;;;;;1.22;89.09;102021.50;5029969;28;20021;-79
2021/01/14 07:05:55;;;;;;;7.23;1.40;;;;;;;1.17;89.70;102022.81;5035838;28;20479;-80
2021/01/14 07:08:32;;;;;;;6.00;1.10;;;;;;;1.25;85.16;102018.34;5034328;28;20032;-80
2021/01/14 07:11:06;;;;;;;6.73;1.43;;;;;;;1.28;84.80;102012.63;5034277;28;20022;-77
2021/01/14 07:13:37;;;;;;;7.47;1.40;;;;;;;1.37;83.88;102018.44;5030431;28;20029;-78
2021/01/14 07:16:03;;;;;;;5.67;1.17;;;;;;;1.35;85.38;102020.88;5032355;28;20112;-77
2021/01/14 07:18:31;;;;;;;6.38;1.60;;;;;;;1.33;84.21;102024.03;5031563;28;20111;-78
2021/01/14 07:21:08;;;;;;;9.50;1.63;;;;;;;1.30;84.03;102023.75;5032310;28;20057;-77
2021/01/14 07:23:35;;;;;;;;;;;;;;;1.28;84.32;102030.34;5030139;28;20025;-77
2021/01/14 07:26:01;;;;;;;9.87;2.27;;;;;;;1.30;84.07;102028.81;5027910;28;19917;-77
2021/01/14 07:28:26;;;;;;;11.75;1.98;;;;;;;1.30;83.90;102027.22;5031069;28;20032;-78
2021/01/14 07:30:52;;;;;;;10.60;2.05;;;;;;;1.28;84.26;102022.75;5031571;28;20030;-77
2021/01/14 07:33:26;;;;;;;8.37;2.70;;;;;;;1.28;84.16;102030.34;5031191;28;20021;-80
2021/01/14 07:35:51;;;;;;;12.90;3.53;;;;;;;1.24;84.58;102031.75;5030377;28;20839;-79
2021/01/14 07:38:18;;;;;;;8.80;1.33;;;;;;;1.21;84.99;102034.06;5029547;28;20033;-76
2021/01/14 07:40:45;;;;;;;5.80;2.57;;;;;;;1.22;84.66;102044.28;5030233;28;20036;-82
2021/01/14 07:43:13;;;;;;;9.70;2.87;;;;;;;1.22;84.65;102046.81;5032186;28;20105;-79
2021/01/14 07:45:40;;;;;;;11.47;2.57;;;;;;;1.21;85.31;102050.13;5031182;28;20022;-80
2021/01/14 07:48:19;;;;;;;15.77;2.27;;;;;;;1.14;84.80;102062.16;5029639;28;20029;-80
2021/01/14 07:50:50;;;;;;;5.10;1.10;;;;;;;1.18;84.74;102057.47;5030346;28;20045;-80
2021/01/14 07:53:16;;;;;;;8.50;1.50;;;;;;;1.16;85.18;102061.53;5032754;28;20028;-79
2021/01/14 07:55:42;;;;;;;8.53;1.60;;;;;;;1.17;85.25;102064.94;5031844;28;20033;-80
2021/01/14 07:58:20;;;;;;;6.25;1.20;;;;;;;1.18;84.80;102067.59;5033038;28;20025;-79
2021/01/14 08:00:58;;;;;;;7.00;1.60;;;;;;;1.17;84.36;102075.94;5032926;28;20104;-80
2021/01/14 08:03:28;;;;;;;6.57;1.73;;;;;;;1.17;84.80;102070.88;5033456;28;20025;-80
2021/01/14 08:05:57;;;;;;;12.80;3.63;;;;;;;1.17;85.30;102080.13;5031643;28;20029;-79
2021/01/14 08:08:25;;;;;;;6.10;1.37;;;;;;;1.13;86.11;102081.53;5030941;28;20078;-79
2021/01/14 08:11:19;;;;;;;11.23;2.00;;;;;;;1.14;85.86;102075.69;5031899;28;20025;-80
2021/01/14 08:14:09;;;;;;;9.80;1.20;;;;;;;1.13;85.87;102079.00;5030064;28;20026;-78
2021/01/14 08:16:50;;;;;;;8.60;1.70;;;;;;;1.14;85.16;102080.75;5031619;28;20041;-82
2021/01/14 08:19:27;;;;;;;4.73;1.43;;;;;;;1.20;85.11;102081.25;5033489;28;20057;-80
2021/01/14 08:21:58;;;;;;;8.20;1.43;;;;;;;1.23;84.67;102085.69;5032890;28;20034;-79
2021/01/14 08:24:52;;;;;;;8.53;1.27;;;;;;;1.24;84.77;102088.31;5035153;28;20033;-81
2021/01/14 08:27:21;;;;;;;10.07;2.13;;;;;;;1.24;84.12;102089.97;5032944;28;20396;-80
2021/01/14 08:29:57;;;;;;;6.63;2.07;;;;;;;1.19;85.25;102097.19;5033105;28;20033;-81
2021/01/14 08:32:43;;;;;;;8.68;1.80;;;;;;;1.24;84.84;102090.84;5030871;28;20033;-79
2021/01/14 08:35:25;;;;;;;6.85;1.63;;;;;;;1.23;85.42;102095.78;5032845;28;20036;-80
2021/01/14 08:37:54;;;;;;;6.60;1.50;;;;;;;1.21;85.28;102093.16;5026336;28;20029;-81
2021/01/14 08:40:22;;;;;;;4.73;1.63;;;;;;;1.22;85.66;102096.56;5028594;28;20052;-78
2021/01/14 08:43:09;;;;;;;7.27;2.27;;;;;;;1.23;84.72;102095.78;5033426;28;20021;-80
2021/01/14 08:45:48;;;;;;;10.27;1.85;;;;;;;1.28;84.83;102103.75;5030999;28;20051;-81
2021/01/14 08:48:26;;;;;;;4.67;1.13;;;;;;;1.27;84.52;102099.47;5030798;28;20509;-80
2021/01/14 08:50:55;;;;;;;8.37;1.47;;;;;;;1.27;84.93;102092.75;5032776;28;20036;-80
2021/01/14 08:53:26;;;;;;;6.70;1.50;;;;;;;1.31;85.05;102098.97;5032012;28;20033;-81
2021/01/14 08:55:53;;;;;;;10.17;1.70;;;;;;;1.35;84.87;102111.13;5031724;28;20025;-79
2021/01/14 08:58:20;;;;;;;11.73;2.30;;;;;;;1.38;84.58;102107.19;5031658;28;20032;-79
2021/01/14 09:00:49;;;;;;;12.90;4.50;;;;;;;1.38;85.59;102111.34;5032708;28;20040;-80
2021/01/14 09:03:15;;;;;;;5.80;1.90;;;;;;;1.45;84.07;102109.44;5029905;28;20441;-79
2021/01/14 09:05:46;;;;;;;13.75;4.85;;;;;;;1.44;84.25;102111.84;5032302;28;20039;-79
2021/01/14 09:08:16;;;;;;;7.40;2.97;;;;;;;1.48;84.12;102114.75;5032457;28;20025;-80
2021/01/14 09:10:51;;;;;;;13.83;2.50;;;;;;;1.50;84.35;102117.41;5032400;28;20053;-77
2021/01/14 09:13:24;;;;;;;10.50;2.43;;;;;;;1.56;83.50;102113.69;5029686;28;20043;-81
2021/01/14 09:15:53;;;;;;;12.60;3.13;;;;;;;1.62;82.93;102108.22;5031945;28;20018;-77
2021/01/14 09:18:28;;;;;;;8.33;1.70;;;;;;;1.60;81.35;102107.22;5031642;28;20018;-80
2021/01/14 09:20:55;;;;;;;6.50;1.47;;;;;;;1.65;82.28;102111.03;5025756;28;20056;-81
2021/01/14 09:23:24;;;;;;;6.50;1.23;;;;;;;1.65;81.32;102105.97;5031062;28;20029;-79
2021/01/14 09:25:54;;;;;;;7.63;1.23;;;;;;;1.65;81.07;102108.50;5029305;28;20104;-78
2021/01/14 09:28:25;;;;;;;11.53;2.30;;;;;;;1.66;80.54;102110.28;5028604;28;20026;-76
2021/01/14 09:31:10;;;;;;;6.03;1.60;;;;;;;1.62;81.60;102108.22;5031876;28;20553;-77
2021/01/14 09:33:44;;;;;;;11.73;1.90;;;;;;;1.64;80.90;102106.75;5029930;28;20029;-78
2021/01/14 09:36:14;;;;;;;10.70;1.47;;;;;;;1.62;80.78;102112.41;5028235;28;20507;-78
2021/01/14 09:38:54;;;;;;;12.00;1.50;;;;;;;1.60;81.09;102107.22;5030077;28;20547;-78
2021/01/14 09:41:29;;;;;;;5.93;2.40;;;;;;;1.59;82.23;102110.53;5030791;28;20029;-78
2021/01/14 09:44:02;;;;;;;12.40;2.47;;;;;;;1.64;82.13;102111.81;5023733;28;20079;-78
2021/01/14 09:46:30;;;;;;;7.37;1.70;;;;;;;1.64;82.55;102128.66;5029756;28;20755;-79
2021/01/14 09:49:01;;;;;;;9.17;3.43;;;;;;;1.68;81.63;102128.13;5028631;28;20036;-79
2021/01/14 09:51:27;;;;;;;10.93;2.90;;;;;;;1.68;81.06;102130.66;5030380;28;20080;-77
2021/01/14 09:53:52;;;;;;;;;;;;;;;1.69;81.41;102125.72;5032634;28;20108;-78
2021/01/14 09:56:22;;;;;;;8.03;1.70;;;;;;;1.68;80.84;102123.94;5029954;28;20004;-77
2021/01/14 09:58:52;;;;;;;7.03;1.50;;;;;;;1.70;80.28;102112.28;5029065;28;20068;-78
2021/01/14 10:01:20;;;;;;;10.40;2.17;;;;;;;1.70;81.29;102124.06;5031850;28;20052;-78
2021/01/14 10:03:58;;;;;;;9.27;1.97;;;;;;;1.68;80.65;102121.41;5031908;28;20419;-78
2021/01/14 10:06:26;;;;;;;8.77;1.50;;;;;;;1.73;81.25;102120.13;5031281;28;20115;-79
2021/01/14 10:08:51;;;;;;;4.60;1.83;;;;;;;1.72;80.06;102120.00;5031306;28;20444;-78
2021/01/14 10:11:19;;;;;;;7.05;2.00;;;;;;;1.73;80.62;102111.63;5031795;28;20049;-79
2021/01/14 10:13:49;;;;;;;4.33;1.57;;;;;;;1.72;79.99;102115.81;5031193;28;20105;-79
2021/01/14 10:16:14;;;;;;;10.87;1.80;;;;;;;1.69;80.13;102115.56;5035513;28;20025;-79
2021/01/14 10:18:39;;;;;;;6.68;1.83;;;;;;;1.74;80.80;102118.47;5033260;28;20037;-77
2021/01/14 10:21:05;;;;;;;5.57;2.33;;;;;;;1.77;79.68;102119.59;5034991;28;20538;-77
2021/01/14 10:23:32;;;;;;;13.27;2.80;;;;;;;1.80;80.53;102111.34;5035107;28;20348;-77
2021/01/14 10:25:57;;;;;;;9.27;2.20;;;;;;;1.80;80.26;102102.09;5033628;28;20033;-80
2021/01/14 10:28:23;;;;;;;9.95;2.03;;;;;;;1.77;78.23;102108.59;5033987;28;20029;-79
2021/01/14 10:30:49;;;;;;;11.43;2.85;;;;;;;1.78;79.55;102105.28;5034917;28;20023;-78
2021/01/14 10:33:15;;;;;;;;;;;;;;;1.80;80.40;102109.69;5037227;28;20033;-78
2021/01/14 10:35:40;;;;;;;9.00;2.00;;;;;;;1.81;79.92;102108.94;5035802;28;20040;-79
2021/01/14 10:38:06;;;;;;;9.93;2.38;;;;;;;1.80;80.00;102107.16;5034958;28;20034;-78
2021/01/14 10:40:34;;;;;;;10.10;2.28;;;;;;;1.83;80.05;102093.84;5036455;28;20040;-82
2021/01/14 10:43:01;;;;;;;11.27;2.90;;;;;;;1.82;79.37;102102.22;5033693;28;20029;-79
2021/01/14 10:45:27;;;;;;;7.87;3.27;;;;;;;1.85;79.63;102103.34;5032595;28;20052;-78
2021/01/14 10:48:06;;;;;;;5.18;1.85;;;;;;;1.85;77.81;102103.34;5026178;28;20386;-79
2021/01/14 10:50:31;;;;;;;6.83;1.70;;;;;;;1.79;76.81;102087.66;5031655;28;20629;-81
2021/01/14 10:53:04;;;;;;;12.43;2.80;;;;;;;1.87;78.75;102090.78;5031393;28;20033;-80
2021/01/14 10:55:31;;;;;;;8.70;2.73;;;;;;;1.91;77.89;102086.84;5032432;28;20041;-77
2021/01/14 10:57:58;;;;;;;11.23;2.23;;;;;;;1.97;78.24;102077.22;5035977;28;20479;-79
2021/01/14 11:00:25;;;;;;;8.53;1.73;;;;;;;1.95;78.47;102079.63;5034534;28;20025;-79
2021/01/14 11:03:10;;;;;;;7.43;2.77;;;;;;;1.99;78.92;102080.75;5034298;28;20032;-78
2021/01/14 11:05:49;;;;;;;8.37;3.23;;;;;;;2.01;77.51;102072.50;5032295;28;20025;-79
2021/01/14 11:08:20;;;;;;;7.87;2.27;;;;;;;2.00;77.52;102067.31;5034180;28;20072;-78
2021/01/14 11:10:47;;;;;;;4.60;2.53;;;;;;;1.96;76.89;102066.19;5032163;28;20032;-79
2021/01/14 11:13:15;;;;;;;9.97;3.33;;;;;;;1.94;76.39;102065.16;5034581;28;20033;-78
2021/01/14 11:15:41;;;;;;;10.07;2.07;;;;;;;1.87;74.99;102056.22;5035647;28;20044;-79
2021/01/14 11:18:08;;;;;;;9.70;2.30;;;;;;;1.86;74.79;102056.97;5034309;28;20025;-77
2021/01/14 11:20:34;;;;;;;10.17;2.10;;;;;;;1.91;75.76;102061.50;5035851;28;20029;-80
2021/01/14 11:22:59;;;;;;;9.00;2.55;;;;;;;1.91;76.21;102061.50;5034350;28;20029;-77
2021/01/14 11:25:25;;;;;;;8.50;2.85;;;;;;;1.94;76.32;102062.63;5029508;28;20100;-80
2021/01/14 11:27:52;;;;;;;9.40;3.22;;;;;;;1.91;75.57;102057.31;5035211;28;20033;-79
2021/01/14 11:30:18;;;;;;;4.47;2.47;;;;;;;1.95;76.27;102058.44;5033755;28;20030;-78
2021/01/14 11:32:44;;;;;;;;;;;;;;;1.91;75.79;102056.44;5034381;28;20548;-80
2021/01/14 11:35:10;;;;;;;10.47;2.73;;;;;;;1.92;76.48;102053.16;5034502;28;19917;-79
2021/01/14 11:37:35;;;;;;;9.88;2.20;;;;;;;1.92;75.96;102048.06;5035658;28;20079;-79
2021/01/14 11:40:00;;;;;;;8.50;2.80;;;;;;;1.96;77.30;102045.03;5035357;28;20041;-78